sensor_id;sensor_type;location;lat;lon;timestamp;pressure;altitude;pressure_sealevel;temperature;humidity
36726;BME280;44936;52.086;5.150;2023-04-07T00:02:28;102005.56;;;8.58;100.00
36726;BME280;44936;52.086;5.150;2023-04-07T00:04:53;102010.94;;;8.64;100.00
36726;BME280;44936;52.086;5.150;2023-04-07T00:07:18;101997.59;;;8.55;100.00
36726;BME280;44936;52.086;5.150;2023-04-07T00:09:44;101980.63;;;8.41;100.00
36726;BME280;44936;52.086;5.150;2023-04-07T00:12:09;101982.41;;;8.42;100.00
36726;BME280;44936;52.086;5.150;2023-04-07T00:14:35;102003.59;;;8.51;100.00
36726;BME280;44936;52.086;5.150;2023-04-07T00:17:00;102009.91;;;8.58;100.00
36726;BME280;44936;52.086;5.150;2023-04-07T00:19:26;102020.72;;;8.70;100.00
36726;BME280;44936;52.086;5.150;2023-04-07T00:21:51;102022.41;;;8.68;100.00
36726;BME280;44936;52.086;5.150;2023-04-07T00:24:18;102024.13;;;8.67;100.00
36726;BME280;44936;52.086;5.150;2023-04-07T00:26:43;102019.84;;;8.69;100.00
36726;BME280;44936;52.086;5.150;2023-04-07T00:29:08;102018.75;;;8.63;100.00
36726;BME280;44936;52.086;5.150;2023-04-07T00:31:34;102017.13;;;8.66;100.00
36726;BME280;44936;52.086;5.150;2023-04-07T00:33:59;102011.06;;;8.67;100.00
36726;BME280;44936;52.086;5.150;2023-04-07T00:36:25;102013.63;;;8.66;100.00
36726;BME280;44936;52.086;5.150;2023-04-07T00:38:51;102011.19;;;8.72;100.00
36726;BME280;44936;52.086;5.150;2023-04-07T00:41:16;102017.44;;;8.77;100.00
36726;BME280;44936;52.086;5.150;2023-04-07T00:43:41;102002.63;;;8.77;100.00
36726;BME280;44936;52.086;5.150;2023-04-07T00:46:07;101994.41;;;8.65;100.00
36726;BME280;44936;52.086;5.150;2023-04-07T00:48:32;102010.22;;;8.68;100.00
36726;BME280;44936;52.086;5.150;2023-04-07T00:50:58;102004.84;;;8.64;100.00
36726;BME280;44936;52.086;5.150;2023-04-07T00:53:23;102009.41;;;8.71;100.00
36726;BME280;44936;52.086;5.150;2023-04-07T00:55:49;102012.91;;;8.71;100.00
36726;BME280;44936;52.086;5.150;2023-04-07T00:58:14;102008.78;;;8.79;100.00
36726;BME280;44936;52.086;5.150;2023-04-07T01:03:34;101998.75;;;8.65;100.00
36726;BME280;44936;52.086;5.150;2023-04-07T01:06:01;102006.69;;;8.66;100.00
36726;BME280;44936;52.086;5.150;2023-04-07T01:14:05;102008.41;;;8.66;100.00
36726;BME280;44936;52.086;5.150;2023-04-07T01:16:50;102009.22;;;8.65;100.00
36726;BME280;44936;52.086;5.150;2023-04-07T01:19:48;102004.88;;;8.65;100.00
36726;BME280;44936;52.086;5.150;2023-04-07T01:22:23;102008.59;;;8.73;100.00
36726;BME280;44936;52.086;5.150;2023-04-07T01:28:08;101988.91;;;8.56;100.00
36726;BME280;44936;52.086;5.150;2023-04-07T01:30:39;101971.22;;;8.47;100.00
36726;BME280;44936;52.086;5.150;2023-04-07T01:33:09;101993.53;;;8.65;100.00
36726;BME280;44936;52.086;5.150;2023-04-07T01:35:36;101976.91;;;8.63;100.00
36726;BME280;44936;52.086;5.150;2023-04-07T01:38:02;101987.63;;;8.72;100.00
36726;BME280;44936;52.086;5.150;2023-04-07T01:40:28;101978.72;;;8.65;100.00
36726;BME280;44936;52.086;5.150;2023-04-07T01:42:56;101979.75;;;8.70;100.00
36726;BME280;44936;52.086;5.150;2023-04-07T01:45:22;101954.53;;;8.42;100.00
36726;BME280;44936;52.086;5.150;2023-04-07T01:47:49;101983.53;;;8.50;100.00
36726;BME280;44936;52.086;5.150;2023-04-07T01:50:15;101998.44;;;8.54;100.00
36726;BME280;44936;52.086;5.150;2023-04-07T01:52:41;102022.25;;;8.63;100.00
36726;BME280;44936;52.086;5.150;2023-04-07T01:55:07;102031.00;;;8.64;100.00
36726;BME280;44936;52.086;5.150;2023-04-07T01:57:33;101998.38;;;8.51;100.00
36726;BME280;44936;52.086;5.150;2023-04-07T01:59:59;102017.94;;;8.65;100.00
36726;BME280;44936;52.086;5.150;2023-04-07T02:02:25;101996.59;;;8.50;100.00
36726;BME280;44936;52.086;5.150;2023-04-07T02:05:12;101975.41;;;8.41;100.00
36726;BME280;44936;52.086;5.150;2023-04-07T02:07:48;101984.19;;;8.43;100.00
36726;BME280;44936;52.086;5.150;2023-04-07T02:10:19;102014.19;;;8.56;100.00
36726;BME280;44936;52.086;5.150;2023-04-07T02:12:45;102030.28;;;8.69;100.00
36726;BME280;44936;52.086;5.150;2023-04-07T02:15:12;102020.50;;;8.62;100.00
36726;BME280;44936;52.086;5.150;2023-04-07T02:17:43;102024.78;;;8.60;100.00
36726;BME280;44936;52.086;5.150;2023-04-07T02:20:10;102020.41;;;8.59;100.00
36726;BME280;44936;52.086;5.150;2023-04-07T02:22:40;102035.97;;;8.56;100.00
36726;BME280;44936;52.086;5.150;2023-04-07T02:25:25;102033.25;;;8.51;100.00
36726;BME280;44936;52.086;5.150;2023-04-07T02:27:51;102030.63;;;8.51;100.00
36726;BME280;44936;52.086;5.150;2023-04-07T02:30:18;102042.88;;;8.52;100.00
36726;BME280;44936;52.086;5.150;2023-04-07T02:32:43;102019.00;;;8.42;100.00
36726;BME280;44936;52.086;5.150;2023-04-07T02:35:09;102017.53;;;8.50;100.00
36726;BME280;44936;52.086;5.150;2023-04-07T02:37:35;102008.44;;;8.39;100.00
36726;BME280;44936;52.086;5.150;2023-04-07T02:40:01;102005.91;;;8.40;100.00
36726;BME280;44936;52.086;5.150;2023-04-07T02:42:27;102027.34;;;8.57;100.00
36726;BME280;44936;52.086;5.150;2023-04-07T02:44:53;102005.47;;;8.28;100.00
36726;BME280;44936;52.086;5.150;2023-04-07T02:47:18;101999.56;;;8.34;100.00
36726;BME280;44936;52.086;5.150;2023-04-07T02:49:43;102032.38;;;8.51;100.00
36726;BME280;44936;52.086;5.150;2023-04-07T02:52:08;102029.81;;;8.54;100.00
36726;BME280;44936;52.086;5.150;2023-04-07T02:54:34;102001.34;;;8.35;100.00
36726;BME280;44936;52.086;5.150;2023-04-07T02:57:00;102003.84;;;8.32;100.00
36726;BME280;44936;52.086;5.150;2023-04-07T02:59:26;102023.72;;;8.54;100.00
36726;BME280;44936;52.086;5.150;2023-04-07T03:01:51;102028.13;;;8.56;100.00
36726;BME280;44936;52.086;5.150;2023-04-07T03:04:16;101999.19;;;8.48;100.00
36726;BME280;44936;52.086;5.150;2023-04-07T03:06:42;102015.25;;;8.62;100.00
36726;BME280;44936;52.086;5.150;2023-04-07T03:09:07;102012.41;;;8.55;100.00
36726;BME280;44936;52.086;5.150;2023-04-07T03:11:32;102014.13;;;8.54;100.00
36726;BME280;44936;52.086;5.150;2023-04-07T03:13:58;102015.63;;;8.46;100.00
36726;BME280;44936;52.086;5.150;2023-04-07T03:16:23;102029.03;;;8.57;100.00
36726;BME280;44936;52.086;5.150;2023-04-07T03:18:48;102027.69;;;8.41;100.00
36726;BME280;44936;52.086;5.150;2023-04-07T03:21:14;102027.69;;;8.41;100.00
36726;BME280;44936;52.086;5.150;2023-04-07T03:23:39;102044.56;;;8.50;100.00
36726;BME280;44936;52.086;5.150;2023-04-07T03:26:05;102034.78;;;8.45;100.00
36726;BME280;44936;52.086;5.150;2023-04-07T03:28:30;102052.25;;;8.46;100.00
36726;BME280;44936;52.086;5.150;2023-04-07T03:30:56;102056.69;;;8.48;100.00
36726;BME280;44936;52.086;5.150;2023-04-07T03:33:21;102016.72;;;8.26;100.00
36726;BME280;44936;52.086;5.150;2023-04-07T03:35:46;102058.59;;;8.54;100.00
36726;BME280;44936;52.086;5.150;2023-04-07T03:38:12;102037.56;;;8.49;100.00
36726;BME280;44936;52.086;5.150;2023-04-07T03:40:37;102041.78;;;8.46;100.00
36726;BME280;44936;52.086;5.150;2023-04-07T03:43:02;102043.75;;;8.53;100.00
36726;BME280;44936;52.086;5.150;2023-04-07T03:45:28;102039.28;;;8.49;100.00
36726;BME280;44936;52.086;5.150;2023-04-07T03:47:53;102042.66;;;8.46;100.00
36726;BME280;44936;52.086;5.150;2023-04-07T03:50:19;102022.59;;;8.45;100.00
36726;BME280;44936;52.086;5.150;2023-04-07T03:52:44;102009.47;;;8.44;100.00
36726;BME280;44936;52.086;5.150;2023-04-07T03:55:10;102004.34;;;8.47;100.00
36726;BME280;44936;52.086;5.150;2023-04-07T03:57:35;102005.28;;;8.49;100.00
36726;BME280;44936;52.086;5.150;2023-04-07T04:00:01;101997.34;;;8.46;100.00
36726;BME280;44936;52.086;5.150;2023-04-07T04:02:26;102001.94;;;8.55;100.00
36726;BME280;44936;52.086;5.150;2023-04-07T04:04:52;102009.75;;;8.53;100.00
36726;BME280;44936;52.086;5.150;2023-04-07T04:07:17;102007.91;;;8.49;100.00
36726;BME280;44936;52.086;5.150;2023-04-07T04:09:42;102009.72;;;8.51;100.00
36726;BME280;44936;52.086;5.150;2023-04-07T04:12:08;101966.59;;;8.39;100.00
36726;BME280;44936;52.086;5.150;2023-04-07T04:14:33;101997.06;;;8.37;100.00
36726;BME280;44936;52.086;5.150;2023-04-07T04:16:58;101995.47;;;8.42;100.00
36726;BME280;44936;52.086;5.150;2023-04-07T04:19:24;101964.06;;;8.40;100.00
36726;BME280;44936;52.086;5.150;2023-04-07T04:21:50;101956.25;;;8.42;100.00
36726;BME280;44936;52.086;5.150;2023-04-07T04:24:15;101926.59;;;8.40;100.00
36726;BME280;44936;52.086;5.150;2023-04-07T04:26:41;101938.56;;;8.63;100.00
36726;BME280;44936;52.086;5.150;2023-04-07T04:29:06;101935.94;;;8.63;100.00
36726;BME280;44936;52.086;5.150;2023-04-07T04:31:31;101900.34;;;8.37;100.00
36726;BME280;44936;52.086;5.150;2023-04-07T04:33:57;101913.59;;;8.43;100.00
36726;BME280;44936;52.086;5.150;2023-04-07T04:36:23;101928.50;;;8.47;100.00
36726;BME280;44936;52.086;5.150;2023-04-07T04:38:48;101945.88;;;8.16;100.00
36726;BME280;44936;52.086;5.150;2023-04-07T04:41:13;101943.63;;;8.00;100.00
36726;BME280;44936;52.086;5.150;2023-04-07T04:43:39;101961.63;;;8.19;100.00
36726;BME280;44936;52.086;5.150;2023-04-07T04:46:04;101960.03;;;8.23;100.00
36726;BME280;44936;52.086;5.150;2023-04-07T04:48:30;101952.63;;;8.10;100.00
36726;BME280;44936;52.086;5.150;2023-04-07T04:50:55;101965.28;;;8.24;100.00
36726;BME280;44936;52.086;5.150;2023-04-07T04:53:20;101985.06;;;8.43;100.00
36726;BME280;44936;52.086;5.150;2023-04-07T04:55:46;102010.53;;;8.49;100.00
36726;BME280;44936;52.086;5.150;2023-04-07T04:58:16;101979.63;;;8.37;100.00
36726;BME280;44936;52.086;5.150;2023-04-07T05:00:41;101982.50;;;8.45;100.00
36726;BME280;44936;52.086;5.150;2023-04-07T05:03:07;101966.41;;;8.33;100.00
36726;BME280;44936;52.086;5.150;2023-04-07T05:05:32;101967.88;;;8.51;100.00
36726;BME280;44936;52.086;5.150;2023-04-07T05:07:57;101963.19;;;8.40;100.00
36726;BME280;44936;52.086;5.150;2023-04-07T05:10:23;101965.06;;;8.45;100.00
36726;BME280;44936;52.086;5.150;2023-04-07T05:12:48;101966.75;;;8.43;100.00
36726;BME280;44936;52.086;5.150;2023-04-07T05:15:13;101975.69;;;8.50;100.00
36726;BME280;44936;52.086;5.150;2023-04-07T05:17:39;101986.22;;;8.53;100.00
36726;BME280;44936;52.086;5.150;2023-04-07T05:20:08;101996.84;;;8.58;100.00
36726;BME280;44936;52.086;5.150;2023-04-07T05:22:33;102010.06;;;8.64;100.00
36726;BME280;44936;52.086;5.150;2023-04-07T05:25:02;102007.06;;;8.50;100.00
36726;BME280;44936;52.086;5.150;2023-04-07T05:27:27;102027.38;;;8.59;100.00
36726;BME280;44936;52.086;5.150;2023-04-07T05:29:53;102027.38;;;8.59;100.00
36726;BME280;44936;52.086;5.150;2023-04-07T05:32:18;102043.09;;;8.60;100.00
36726;BME280;44936;52.086;5.150;2023-04-07T05:34:43;102042.19;;;8.58;100.00
36726;BME280;44936;52.086;5.150;2023-04-07T05:37:09;102053.13;;;8.46;100.00
36726;BME280;44936;52.086;5.150;2023-04-07T05:39:35;102071.78;;;8.57;100.00
36726;BME280;44936;52.086;5.150;2023-04-07T05:42:00;102075.38;;;8.61;100.00
36726;BME280;44936;52.086;5.150;2023-04-07T05:44:27;102077.94;;;8.59;100.00
36726;BME280;44936;52.086;5.150;2023-04-07T05:46:52;102092.78;;;8.60;100.00
36726;BME280;44936;52.086;5.150;2023-04-07T05:49:17;102093.81;;;8.65;100.00
36726;BME280;44936;52.086;5.150;2023-04-07T05:51:43;102095.41;;;8.60;100.00
36726;BME280;44936;52.086;5.150;2023-04-07T05:54:08;102102.38;;;8.60;100.00
36726;BME280;44936;52.086;5.150;2023-04-07T05:56:33;102098.91;;;8.61;100.00
36726;BME280;44936;52.086;5.150;2023-04-07T05:58:59;102111.09;;;8.60;100.00
36726;BME280;44936;52.086;5.150;2023-04-07T06:01:26;102106.00;;;8.65;100.00
36726;BME280;44936;52.086;5.150;2023-04-07T06:03:51;102112.63;;;8.54;100.00
36726;BME280;44936;52.086;5.150;2023-04-07T06:06:17;102110.75;;;8.49;100.00
36726;BME280;44936;52.086;5.150;2023-04-07T06:08:42;102122.19;;;8.53;100.00
36726;BME280;44936;52.086;5.150;2023-04-07T06:11:07;102133.59;;;8.55;100.00
36726;BME280;44936;52.086;5.150;2023-04-07T06:13:33;102118.31;;;8.40;100.00
36726;BME280;44936;52.086;5.150;2023-04-07T06:15:58;102135.28;;;8.53;100.00
36726;BME280;44936;52.086;5.150;2023-04-07T06:18:23;102146.94;;;8.64;100.00
36726;BME280;44936;52.086;5.150;2023-04-07T06:20:49;102113.31;;;8.48;100.00
36726;BME280;44936;52.086;5.150;2023-04-07T06:23:14;102134.34;;;8.51;100.00
36726;BME280;44936;52.086;5.150;2023-04-07T06:25:40;102148.81;;;8.67;100.00
36726;BME280;44936;52.086;5.150;2023-04-07T06:28:05;102122.94;;;8.49;100.00
36726;BME280;44936;52.086;5.150;2023-04-07T06:30:31;102142.28;;;8.54;100.00
36726;BME280;44936;52.086;5.150;2023-04-07T06:32:56;102156.41;;;8.59;100.00
36726;BME280;44936;52.086;5.150;2023-04-07T06:35:22;102170.84;;;8.75;100.00
36726;BME280;44936;52.086;5.150;2023-04-07T06:37:47;102161.03;;;8.68;100.00
36726;BME280;44936;52.086;5.150;2023-04-07T06:40:12;102165.44;;;8.69;100.00
36726;BME280;44936;52.086;5.150;2023-04-07T06:42:38;102172.38;;;8.68;100.00
36726;BME280;44936;52.086;5.150;2023-04-07T06:45:03;102166.41;;;8.72;100.00
36726;BME280;44936;52.086;5.150;2023-04-07T06:47:29;102170.94;;;8.78;100.00
36726;BME280;44936;52.086;5.150;2023-04-07T06:49:54;102172.72;;;8.79;100.00
36726;BME280;44936;52.086;5.150;2023-04-07T06:52:20;102138.19;;;8.62;100.00
36726;BME280;44936;52.086;5.150;2023-04-07T06:54:45;102170.16;;;8.80;100.00
36726;BME280;44936;52.086;5.150;2023-04-07T06:57:11;102144.75;;;8.76;100.00
36726;BME280;44936;52.086;5.150;2023-04-07T06:59:37;102171.59;;;8.99;100.00
36726;BME280;44936;52.086;5.150;2023-04-07T07:02:02;102144.22;;;8.88;100.00
36726;BME280;44936;52.086;5.150;2023-04-07T07:04:28;102162.13;;;9.03;100.00
36726;BME280;44936;52.086;5.150;2023-04-07T07:06:53;102171.19;;;9.14;100.00
36726;BME280;44936;52.086;5.150;2023-04-07T07:09:20;102183.34;;;9.12;100.00
36726;BME280;44936;52.086;5.150;2023-04-07T07:11:45;102178.97;;;9.11;100.00
36726;BME280;44936;52.086;5.150;2023-04-07T07:14:11;102196.56;;;9.17;100.00
36726;BME280;44936;52.086;5.150;2023-04-07T07:16:37;102206.94;;;9.14;100.00
36726;BME280;44936;52.086;5.150;2023-04-07T07:19:02;102212.38;;;9.20;100.00
36726;BME280;44936;52.086;5.150;2023-04-07T07:21:28;102231.22;;;9.09;100.00
36726;BME280;44936;52.086;5.150;2023-04-07T07:23:53;102227.19;;;9.19;100.00
36726;BME280;44936;52.086;5.150;2023-04-07T07:26:19;102238.84;;;9.29;100.00
36726;BME280;44936;52.086;5.150;2023-04-07T07:28:45;102249.31;;;9.29;100.00
36726;BME280;44936;52.086;5.150;2023-04-07T07:31:11;102246.44;;;9.21;100.00
36726;BME280;44936;52.086;5.150;2023-04-07T07:33:38;102255.56;;;9.34;100.00
36726;BME280;44936;52.086;5.150;2023-04-07T07:36:05;102255.38;;;9.28;100.00
36726;BME280;44936;52.086;5.150;2023-04-07T07:38:30;102249.31;;;9.29;100.00
36726;BME280;44936;52.086;5.150;2023-04-07T07:40:56;102267.03;;;9.38;100.00
36726;BME280;44936;52.086;5.150;2023-04-07T07:43:21;102260.56;;;9.26;100.00
36726;BME280;44936;52.086;5.150;2023-04-07T07:45:46;102253.41;;;9.21;100.00
36726;BME280;44936;52.086;5.150;2023-04-07T07:48:13;102257.03;;;9.26;100.00
36726;BME280;44936;52.086;5.150;2023-04-07T07:50:43;102225.50;;;8.93;100.00
36726;BME280;44936;52.086;5.150;2023-04-07T07:53:09;102241.41;;;9.00;100.00
36726;BME280;44936;52.086;5.150;2023-04-07T07:55:35;102264.31;;;9.07;100.00
36726;BME280;44936;52.086;5.150;2023-04-07T07:58:00;102267.41;;;9.21;100.00
36726;BME280;44936;52.086;5.150;2023-04-07T08:00:26;102277.50;;;9.38;100.00
36726;BME280;44936;52.086;5.150;2023-04-07T08:02:52;102264.13;;;9.28;100.00
36726;BME280;44936;52.086;5.150;2023-04-07T08:05:17;102278.44;;;9.40;100.00
36726;BME280;44936;52.086;5.150;2023-04-07T08:07:43;102277.78;;;9.47;100.00
36726;BME280;44936;52.086;5.150;2023-04-07T08:10:08;102282.13;;;9.46;100.00
36726;BME280;44936;52.086;5.150;2023-04-07T08:12:34;102294.50;;;9.52;100.00
36726;BME280;44936;52.086;5.150;2023-04-07T08:14:59;102303.22;;;9.51;100.00
36726;BME280;44936;52.086;5.150;2023-04-07T08:17:26;102317.44;;;9.59;100.00
36726;BME280;44936;52.086;5.150;2023-04-07T08:19:51;102323.75;;;9.65;100.00
36726;BME280;44936;52.086;5.150;2023-04-07T08:22:16;102325.84;;;9.49;100.00
36726;BME280;44936;52.086;5.150;2023-04-07T08:24:44;102333.72;;;9.77;100.00
36726;BME280;44936;52.086;5.150;2023-04-07T08:27:09;102349.06;;;9.65;100.00
36726;BME280;44936;52.086;5.150;2023-04-07T08:29:34;102350.88;;;9.68;100.00
36726;BME280;44936;52.086;5.150;2023-04-07T08:32:00;102345.00;;;9.75;100.00
36726;BME280;44936;52.086;5.150;2023-04-07T08:34:25;102373.94;;;9.79;100.00
36726;BME280;44936;52.086;5.150;2023-04-07T08:36:50;102372.38;;;9.84;100.00
36726;BME280;44936;52.086;5.150;2023-04-07T08:39:16;102374.16;;;9.85;100.00
36726;BME280;44936;52.086;5.150;2023-04-07T08:41:41;102372.84;;;10.00;100.00
36726;BME280;44936;52.086;5.150;2023-04-07T08:44:09;102367.00;;;10.10;100.00
36726;BME280;44936;52.086;5.150;2023-04-07T08:46:37;102373.00;;;10.06;100.00
36726;BME280;44936;52.086;5.150;2023-04-07T08:49:07;102378.25;;;10.06;100.00
36726;BME280;44936;52.086;5.150;2023-04-07T08:51:36;102390.34;;;10.01;100.00
36726;BME280;44936;52.086;5.150;2023-04-07T08:54:10;102378.94;;;9.99;100.00
36726;BME280;44936;52.086;5.150;2023-04-07T08:56:40;102385.88;;;9.98;100.00
36726;BME280;44936;52.086;5.150;2023-04-07T08:59:09;102390.41;;;10.04;100.00
36726;BME280;44936;52.086;5.150;2023-04-07T09:01:35;102389.41;;;9.99;100.00
36726;BME280;44936;52.086;5.150;2023-04-07T09:04:02;102390.41;;;10.04;100.00
36726;BME280;44936;52.086;5.150;2023-04-07T09:06:32;102401.59;;;10.25;100.00
36726;BME280;44936;52.086;5.150;2023-04-07T09:09:01;102392.03;;;10.27;100.00
36726;BME280;44936;52.086;5.150;2023-04-07T09:11:28;102375.53;;;10.31;100.00
36726;BME280;44936;52.086;5.150;2023-04-07T09:13:55;102405.34;;;10.65;100.00
36726;BME280;44936;52.086;5.150;2023-04-07T09:16:21;102358.06;;;10.63;100.00
36726;BME280;44936;52.086;5.150;2023-04-07T09:18:48;102378.66;;;10.81;100.00
36726;BME280;44936;52.086;5.150;2023-04-07T09:21:13;102390.94;;;10.82;100.00
36726;BME280;44936;52.086;5.150;2023-04-07T09:23:40;102396.22;;;10.84;100.00
36726;BME280;44936;52.086;5.150;2023-04-07T09:26:19;102399.63;;;10.80;100.00
36726;BME280;44936;52.086;5.150;2023-04-07T09:28:50;102393.31;;;10.73;100.00
36726;BME280;44936;52.086;5.150;2023-04-07T09:31:16;102412.84;;;10.84;100.00
36726;BME280;44936;52.086;5.150;2023-04-07T09:33:41;102412.63;;;10.76;100.00
36726;BME280;44936;52.086;5.150;2023-04-07T09:36:07;102409.03;;;10.71;100.00
36726;BME280;44936;52.086;5.150;2023-04-07T09:38:37;102403.91;;;10.44;100.00
36726;BME280;44936;52.086;5.150;2023-04-07T09:41:09;102430.66;;;10.63;100.00
36726;BME280;44936;52.086;5.150;2023-04-07T09:43:36;102422.63;;;10.58;100.00
36726;BME280;44936;52.086;5.150;2023-04-07T09:46:16;102439.94;;;10.83;100.00
36726;BME280;44936;52.086;5.150;2023-04-07T09:48:44;102428.28;;;10.72;100.00
36726;BME280;44936;52.086;5.150;2023-04-07T09:51:16;102421.22;;;10.69;100.00
36726;BME280;44936;52.086;5.150;2023-04-07T09:53:46;102430.91;;;10.72;100.00
36726;BME280;44936;52.086;5.150;2023-04-07T09:56:14;102435.31;;;10.73;100.00
36726;BME280;44936;52.086;5.150;2023-04-07T09:58:42;102424.13;;;10.80;100.00
36726;BME280;44936;52.086;5.150;2023-04-07T10:01:09;102428.25;;;10.70;100.00
36726;BME280;44936;52.086;5.150;2023-04-07T10:03:35;102431.41;;;10.90;100.00
36726;BME280;44936;52.086;5.150;2023-04-07T10:06:01;102432.34;;;10.94;100.00
36726;BME280;44936;52.086;5.150;2023-04-07T10:08:28;102441.50;;;11.08;100.00
36726;BME280;44936;52.086;5.150;2023-04-07T10:10:56;102411.50;;;10.98;100.00
36726;BME280;44936;52.086;5.150;2023-04-07T10:13:25;102419.03;;;10.86;100.00
36726;BME280;44936;52.086;5.150;2023-04-07T10:15:51;102400.72;;;10.56;100.00
36726;BME280;44936;52.086;5.150;2023-04-07T10:18:16;102429.28;;;10.77;100.00
36726;BME280;44936;52.086;5.150;2023-04-07T10:20:44;102422.59;;;10.57;100.00
36726;BME280;44936;52.086;5.150;2023-04-07T10:23:46;102448.75;;;10.54;100.00
36726;BME280;44936;52.086;5.150;2023-04-07T10:26:15;102443.66;;;10.60;100.00
36726;BME280;44936;52.086;5.150;2023-04-07T10:28:45;102448.50;;;10.76;100.00
36726;BME280;44936;52.086;5.150;2023-04-07T10:31:13;102421.84;;;10.61;100.00
36726;BME280;44936;52.086;5.150;2023-04-07T10:33:51;102408.81;;;10.64;100.00
36726;BME280;44936;52.086;5.150;2023-04-07T10:36:17;102447.28;;;10.63;100.00
36726;BME280;44936;52.086;5.150;2023-04-07T10:41:36;102459.31;;;10.57;100.00
36726;BME280;44936;52.086;5.150;2023-04-07T10:44:06;102453.81;;;10.47;100.00
36726;BME280;44936;52.086;5.150;2023-04-07T10:47:02;102456.63;;;10.54;100.00
36726;BME280;44936;52.086;5.150;2023-04-07T10:49:28;102463.50;;;10.50;100.00
36726;BME280;44936;52.086;5.150;2023-04-07T10:54:39;102453.16;;;10.55;100.00
36726;BME280;44936;52.086;5.150;2023-04-07T10:57:12;102458.00;;;10.71;100.00
36726;BME280;44936;52.086;5.150;2023-04-07T10:59:57;102456.03;;;10.64;100.00
36726;BME280;44936;52.086;5.150;2023-04-07T11:04:51;102440.94;;;10.87;100.00
36726;BME280;44936;52.086;5.150;2023-04-07T11:07:16;102445.41;;;10.91;100.00
36726;BME280;44936;52.086;5.150;2023-04-07T11:09:43;102449.41;;;11.10;100.00
36726;BME280;44936;52.086;5.150;2023-04-07T11:12:21;102448.25;;;11.31;100.00
36726;BME280;44936;52.086;5.150;2023-04-07T11:14:46;102448.09;;;11.60;100.00
36726;BME280;44936;52.086;5.150;2023-04-07T11:17:15;102441.38;;;11.73;100.00
36726;BME280;44936;52.086;5.150;2023-04-07T11:20:08;102416.00;;;11.75;100.00
36726;BME280;44936;52.086;5.150;2023-04-07T11:22:33;102427.72;;;11.86;100.00
36726;BME280;44936;52.086;5.150;2023-04-07T11:24:59;102408.31;;;11.82;100.00
36726;BME280;44936;52.086;5.150;2023-04-07T11:27:25;102408.13;;;11.75;100.00
36726;BME280;44936;52.086;5.150;2023-04-07T11:29:52;102420.22;;;11.67;100.00
36726;BME280;44936;52.086;5.150;2023-04-07T11:32:22;102434.81;;;11.55;100.00
36726;BME280;44936;52.086;5.150;2023-04-07T11:34:54;102446.44;;;11.30;100.00
36726;BME280;44936;52.086;5.150;2023-04-07T11:37:24;102457.53;;;11.19;100.00
36726;BME280;44936;52.086;5.150;2023-04-07T11:39:56;102468.63;;;11.07;100.00
36726;BME280;44936;52.086;5.150;2023-04-07T11:42:36;102476.56;;;11.10;100.00
36726;BME280;44936;52.086;5.150;2023-04-07T11:45:02;102483.69;;;11.14;100.00
36726;BME280;44936;52.086;5.150;2023-04-07T11:47:35;102468.69;;;11.10;100.00
36726;BME280;44936;52.086;5.150;2023-04-07T11:50:01;102465.50;;;11.22;100.00
36726;BME280;44936;52.086;5.150;2023-04-07T11:52:26;102465.81;;;11.34;100.00
36726;BME280;44936;52.086;5.150;2023-04-07T11:54:51;102431.72;;;11.35;100.00
36726;BME280;44936;52.086;5.150;2023-04-07T11:57:25;102472.00;;;11.71;100.00
36726;BME280;44936;52.086;5.150;2023-04-07T12:00:07;102451.28;;;11.83;100.00
36726;BME280;44936;52.086;5.150;2023-04-07T12:02:33;102443.81;;;12.01;100.00
36726;BME280;44936;52.086;5.150;2023-04-07T12:04:59;102436.00;;;12.04;100.00
36726;BME280;44936;52.086;5.150;2023-04-07T12:07:24;102401.88;;;11.70;100.00
36726;BME280;44936;52.086;5.150;2023-04-07T12:09:52;102422.41;;;11.84;100.00
36726;BME280;44936;52.086;5.150;2023-04-07T12:12:25;102449.38;;;11.77;100.00
36726;BME280;44936;52.086;5.150;2023-04-07T12:14:51;102449.03;;;11.63;100.00
36726;BME280;44936;52.086;5.150;2023-04-07T12:17:23;102444.75;;;11.67;100.00
36726;BME280;44936;52.086;5.150;2023-04-07T12:19:49;102475.66;;;11.77;100.00
36726;BME280;44936;52.086;5.150;2023-04-07T12:22:14;102485.66;;;11.90;100.00
36726;BME280;44936;52.086;5.150;2023-04-07T12:24:40;102442.78;;;11.93;100.00
36726;BME280;44936;52.086;5.150;2023-04-07T12:27:05;102432.06;;;11.84;100.00
36726;BME280;44936;52.086;5.150;2023-04-07T12:29:32;102430.38;;;11.87;100.00
36726;BME280;44936;52.086;5.150;2023-04-07T12:31:58;102444.38;;;11.86;100.00
36726;BME280;44936;52.086;5.150;2023-04-07T12:34:23;102465.06;;;11.74;100.00
36726;BME280;44936;52.086;5.150;2023-04-07T12:36:49;102491.66;;;11.85;100.00
36726;BME280;44936;52.086;5.150;2023-04-07T12:39:14;102477.22;;;11.69;100.00
36726;BME280;44936;52.086;5.150;2023-04-07T12:41:40;102504.34;;;11.68;100.00
36726;BME280;44936;52.086;5.150;2023-04-07T12:44:06;102504.53;;;11.41;100.00
36726;BME280;44936;52.086;5.150;2023-04-07T12:46:31;102527.25;;;11.39;100.00
36726;BME280;44936;52.086;5.150;2023-04-07T12:48:57;102517.03;;;11.17;100.00
36726;BME280;44936;52.086;5.150;2023-04-07T12:51:22;102530.84;;;11.11;100.00
36726;BME280;44936;52.086;5.150;2023-04-07T12:53:47;102528.13;;;11.06;100.00
36726;BME280;44936;52.086;5.150;2023-04-07T12:56:13;102536.06;;;11.10;100.00
36726;BME280;44936;52.086;5.150;2023-04-07T12:58:39;102534.47;;;11.15;100.00
36726;BME280;44936;52.086;5.150;2023-04-07T13:01:04;102515.88;;;11.07;100.00
36726;BME280;44936;52.086;5.150;2023-04-07T13:03:31;102530.97;;;11.14;100.00
36726;BME280;44936;52.086;5.150;2023-04-07T13:05:56;102527.31;;;11.09;100.00
36726;BME280;44936;52.086;5.150;2023-04-07T13:08:26;102522.88;;;11.06;100.00